Wombwell, United Kingdom
Current Conditions -  °F | °C
As of 4:50 AM on Friday 21 Nov 2014 (Local Time) from EGCN Reporting Station
Moderate Fog Moderate Fog  
Wind Chill: 45°   Ceiling: 100
Heat Index: 45°   Visibility: 0.21mi
Dew Point: 43°   Wind: 1mph
Humidity: 93%   Direction: NA
Pressure: 30.21"   Gusts: NA
Location:  53.52°N, 1.4°W
Report Text: EGCN 210450Z VRB01KT 0350 R20/0225 FG OVC001 07/06 Q1023
Loading
Personal Weather Stations






























Interactive Weather Map New forecast layout! Learn more

10-Day Weather Forecast

Advertisements
Track Severe Weather on mobile